createdAt,value
2023-02-19T00:03:18.048Z,93456.91
2023-02-19T00:08:19.850Z,93451.69
2023-02-19T00:13:21.681Z,93458.34
2023-02-19T00:18:24.079Z,93458.06
2023-02-19T00:23:27.008Z,93448.09
2023-02-19T00:28:28.752Z,93455.13
2023-02-19T00:33:30.556Z,93442.94
2023-02-19T00:38:36.160Z,93454.72
2023-02-19T00:43:38.056Z,93452.97
2023-02-19T00:48:39.891Z,93449.00
2023-02-19T00:53:42.692Z,93445.53
2023-02-19T00:58:44.478Z,93441.56
2023-02-19T01:03:47.259Z,93452.84
2023-02-19T01:08:49.250Z,93439.09
2023-02-19T01:13:51.091Z,93419.84
2023-02-19T01:18:54.183Z,93442.44
2023-02-19T01:23:56.818Z,93419.69
2023-02-19T01:29:01.662Z,93423.94
2023-02-19T01:34:04.909Z,93439.69
2023-02-19T01:39:07.153Z,93426.31
2023-02-19T01:44:12.196Z,93429.19
2023-02-19T01:49:34.031Z,93427.31
2023-02-19T01:54:40.038Z,93421.28
2023-02-19T01:59:43.171Z,93418.81
2023-02-19T02:04:44.984Z,93414.00
2023-02-19T02:10:05.287Z,93405.56
2023-02-19T02:15:07.895Z,93413.00
2023-02-19T02:20:12.717Z,93409.16
2023-02-19T02:25:38.865Z,93406.56
2023-02-19T02:30:44.998Z,93418.19
2023-02-19T02:35:56.104Z,93408.19
2023-02-19T02:40:59.043Z,93386.09
2023-02-19T02:46:01.395Z,93401.75
2023-02-19T02:51:06.600Z,93393.00
2023-02-19T02:56:17.356Z,93387.13
2023-02-19T03:01:51.983Z,93363.16
2023-02-19T03:06:57.038Z,93374.13
2023-02-19T03:12:22.418Z,93365.50
2023-02-19T03:18:15.297Z,93367.47
2023-02-19T03:23:20.414Z,93352.75
2023-02-19T03:28:46.626Z,93367.69
2023-02-19T03:33:53.989Z,93363.47
2023-02-19T03:39:03.943Z,93362.59
2023-02-19T03:44:17.789Z,93365.31
2023-02-19T03:49:30.458Z,93358.66
2023-02-19T03:54:38.535Z,93352.50
2023-02-19T03:59:48.909Z,93355.75
2023-02-19T04:04:58.826Z,93345.06
2023-02-19T04:10:03.947Z,93338.09
2023-02-19T04:15:14.629Z,93342.97
2023-02-19T04:20:16.769Z,93329.53
2023-02-19T04:25:18.845Z,93321.84
2023-02-19T04:30:21.508Z,93324.56
2023-02-19T04:35:23.276Z,93321.34
2023-02-19T04:40:25.106Z,93331.22
2023-02-19T04:45:27.330Z,93326.13
2023-02-19T04:50:29.140Z,93313.88
2023-02-19T04:55:30.883Z,93340.25
2023-02-19T05:00:34.066Z,93320.81
2023-02-19T05:05:35.916Z,93341.06
2023-02-19T05:10:37.647Z,93333.06
2023-02-19T05:15:39.530Z,93347.91
2023-02-19T05:20:41.343Z,93346.69
2023-02-19T05:25:43.122Z,93358.13
2023-02-19T05:30:44.923Z,93352.53
2023-02-19T05:35:49.240Z,93359.19
2023-02-19T05:40:51.471Z,93361.34
2023-02-19T05:45:53.390Z,93365.28
2023-02-19T05:50:55.196Z,93374.63
2023-02-19T05:55:57.351Z,93343.75
2023-02-19T06:00:59.106Z,93336.81
2023-02-19T06:06:03.631Z,93346.09
2023-02-19T06:11:05.663Z,93323.22
2023-02-19T06:16:08.730Z,93327.22
2023-02-19T06:21:12.595Z,93329.06
2023-02-19T06:26:17.667Z,93321.34
2023-02-19T06:31:21.759Z,93318.09
2023-02-19T06:36:24.289Z,93324.28
2023-02-19T06:41:26.132Z,93328.28
2023-02-19T06:46:28.489Z,93318.47
2023-02-19T06:51:32.604Z,93340.00
2023-02-19T06:56:38.256Z,93318.13
2023-02-19T07:01:40.727Z,93324.28
2023-02-19T07:06:42.635Z,93348.53
2023-02-19T07:11:44.439Z,93369.34
2023-02-19T07:16:47.494Z,93383.03
2023-02-19T07:21:49.392Z,93398.88
2023-02-19T07:26:51.222Z,93403.34
2023-02-19T07:31:53.041Z,93399.50
2023-02-19T07:36:54.886Z,93402.13
2023-02-19T07:41:57.665Z,93394.22
2023-02-19T07:47:02.480Z,93396.44
2023-02-19T07:52:04.423Z,93386.53
2023-02-19T07:57:06.263Z,93416.22
2023-02-19T08:02:38.162Z,93426.69
2023-02-19T08:07:40.528Z,93432.13
2023-02-19T08:13:01.403Z,93442.41
2023-02-19T08:18:03.336Z,93446.69
2023-02-19T08:23:05.285Z,93453.84
2023-02-19T08:28:08.587Z,93452.63
2023-02-19T08:33:12.793Z,93472.47
2023-02-19T08:38:16.492Z,93457.44
2023-02-19T08:43:19.279Z,93467.94
2023-02-19T08:48:21.427Z,93466.38
2023-02-19T08:53:24.600Z,93469.28
2023-02-19T08:58:26.449Z,93468.25
2023-02-19T09:03:28.348Z,93473.25
2023-02-19T09:08:30.232Z,93462.91
2023-02-19T09:13:32.071Z,93465.72
2023-02-19T09:18:34.012Z,93469.53
2023-02-19T09:23:36.954Z,93470.50
2023-02-19T09:28:41.725Z,93439.94
2023-02-19T09:33:48.064Z,93451.16
2023-02-19T09:38:49.906Z,93436.94
2023-02-19T09:43:51.975Z,93453.03
2023-02-19T09:49:01.714Z,93430.19
2023-02-19T09:54:06.371Z,93452.75
2023-02-19T09:59:20.808Z,93447.53
2023-02-19T10:04:22.704Z,93454.47
2023-02-19T10:09:27.215Z,93451.94
2023-02-19T10:14:35.217Z,93460.28
2023-02-19T10:19:37.182Z,93460.22
2023-02-19T10:24:43.310Z,93457.19
2023-02-19T10:29:47.737Z,93431.88
2023-02-19T10:35:12.754Z,93460.25
2023-02-19T10:40:18.123Z,93451.91
2023-02-19T10:45:24.583Z,93477.28
2023-02-19T10:50:39.220Z,93481.91
2023-02-19T10:55:41.276Z,93485.25
2023-02-19T11:00:43.102Z,93480.91
2023-02-19T11:05:58.081Z,93467.81
2023-02-19T11:11:00.111Z,93474.16
2023-02-19T11:16:02.198Z,93473.94
2023-02-19T11:21:07.098Z,93463.59
2023-02-19T11:26:19.708Z,93467.06
2023-02-19T11:31:24.347Z,93454.75
2023-02-19T11:36:30.116Z,93439.09
2023-02-19T11:41:44.465Z,93446.88
2023-02-19T11:47:07.680Z,93434.63
2023-02-19T11:52:34.388Z,93422.88
2023-02-19T11:57:42.812Z,93418.94
2023-02-19T12:03:21.632Z,93408.97
2023-02-19T12:08:38.228Z,93400.47
2023-02-19T12:13:59.262Z,93395.66
2023-02-19T12:19:08.203Z,93391.06
2023-02-19T12:24:26.454Z,93385.56
2023-02-19T12:29:51.837Z,93337.72
2023-02-19T12:35:29.045Z,93379.97
2023-02-19T12:40:55.456Z,93327.88
2023-02-19T12:46:05.964Z,93371.19
2023-02-19T12:51:22.966Z,93371.69
2023-02-19T12:56:38.212Z,93365.50
2023-02-19T13:01:49.686Z,93357.00
2023-02-19T13:07:07.111Z,93361.19
2023-02-19T13:12:17.786Z,93350.31
2023-02-19T13:17:41.396Z,93358.69
2023-02-19T13:23:25.817Z,93309.50
2023-02-19T13:28:46.512Z,93354.38
2023-02-19T13:34:22.701Z,93360.38
2023-02-19T13:39:24.762Z,93355.53
2023-02-19T13:44:30.816Z,93355.13
2023-02-19T13:49:34.029Z,93346.72
2023-02-19T13:54:39.956Z,93331.44
2023-02-19T13:59:42.357Z,93329.59
2023-02-19T14:04:56.943Z,93327.94
2023-02-19T14:10:01.091Z,93317.38
2023-02-19T14:15:24.741Z,93329.34
2023-02-19T14:20:45.015Z,93324.84
2023-02-19T14:25:52.665Z,93325.03
2023-02-19T14:30:58.308Z,93321.66
2023-02-19T14:36:03.921Z,93312.03
2023-02-19T14:41:07.466Z,93305.19
2023-02-19T14:46:18.638Z,93308.34
2023-02-19T14:51:40.119Z,93297.47
2023-02-19T14:56:46.715Z,93301.56
2023-02-19T15:01:56.046Z,93301.16
2023-02-19T15:07:03.062Z,93291.69
2023-02-19T15:12:05.845Z,93261.97
2023-02-19T15:17:07.917Z,93287.03
2023-02-19T15:22:17.424Z,93279.19
2023-02-19T15:27:23.339Z,93288.50
2023-02-19T15:32:27.162Z,93295.09
2023-02-19T15:37:33.026Z,93294.78
2023-02-19T15:42:37.171Z,93298.72
2023-02-19T15:47:49.222Z,93302.25
2023-02-19T15:53:14.299Z,93303.16
2023-02-19T15:58:27.828Z,93309.38
2023-02-19T16:03:31.044Z,93298.38
2023-02-19T16:08:35.994Z,93259.53
2023-02-19T16:13:37.774Z,93306.13
2023-02-19T16:18:47.620Z,93310.34
2023-02-19T16:23:54.783Z,93290.31
2023-02-19T16:28:56.827Z,93265.97
2023-02-19T16:34:17.643Z,93324.25
2023-02-19T16:39:21.162Z,93321.00
2023-02-19T16:44:27.449Z,93341.19
2023-02-19T16:49:29.581Z,93335.06
2023-02-19T16:54:31.516Z,93348.41
2023-02-19T16:59:33.376Z,93347.84
2023-02-19T17:04:35.477Z,93350.69
2023-02-19T17:09:37.335Z,93359.25
2023-02-19T17:14:39.240Z,93364.72
2023-02-19T17:19:41.082Z,93345.19
2023-02-19T17:24:44.413Z,93378.28
2023-02-19T17:29:46.243Z,93392.69
2023-02-19T17:34:49.647Z,93413.41
2023-02-19T17:39:51.481Z,93423.16
2023-02-19T17:44:53.579Z,93401.94
2023-02-19T17:49:55.972Z,93422.13
2023-02-19T17:54:57.820Z,93428.97
2023-02-19T18:00:00.690Z,93431.00
2023-02-19T18:05:02.666Z,93428.00
2023-02-19T18:10:05.957Z,93438.56
2023-02-19T18:15:09.106Z,93400.72
2023-02-19T18:20:19.998Z,93451.31
2023-02-19T18:25:22.640Z,93463.25
2023-02-19T18:30:24.763Z,93473.91
2023-02-19T18:35:26.692Z,93463.66
2023-02-19T18:40:28.947Z,93472.44
2023-02-19T18:45:35.194Z,93476.56
2023-02-19T18:50:37.890Z,93470.63
2023-02-19T18:55:40.014Z,93476.78
2023-02-19T19:00:41.863Z,93463.06
2023-02-19T19:05:43.807Z,93460.06
2023-02-19T19:10:45.621Z,93459.72
2023-02-19T19:15:51.514Z,93453.78
2023-02-19T19:20:56.599Z,93457.53
2023-02-19T19:25:58.508Z,93458.44
2023-02-19T19:31:00.656Z,93457.50
2023-02-19T19:36:02.455Z,93463.28
2023-02-19T19:41:05.294Z,93467.19
2023-02-19T19:46:08.656Z,93465.66
2023-02-19T19:51:10.924Z,93469.78
2023-02-19T19:56:12.971Z,93481.31
2023-02-19T20:01:15.102Z,93492.06
2023-02-19T20:06:26.146Z,93475.34
2023-02-19T20:11:28.025Z,93481.09
2023-02-19T20:16:29.835Z,93480.91
2023-02-19T20:21:31.743Z,93487.22
2023-02-19T20:26:33.563Z,93433.16
2023-02-19T20:31:35.481Z,93492.44
2023-02-19T20:36:43.126Z,93480.47
2023-02-19T20:41:51.028Z,93471.34
2023-02-19T20:46:54.494Z,93458.53
2023-02-19T20:51:59.816Z,93454.47
2023-02-19T20:57:04.669Z,93455.28
2023-02-19T21:02:14.477Z,93449.50
2023-02-19T21:07:16.745Z,93446.38
2023-02-19T21:12:20.248Z,93434.41
2023-02-19T21:17:23.007Z,93445.16
2023-02-19T21:22:25.102Z,93473.19
2023-02-19T21:27:26.949Z,93477.97
2023-02-19T21:32:28.698Z,93472.69
2023-02-19T21:37:31.689Z,93500.88
2023-02-19T21:42:33.826Z,93496.84
2023-02-19T21:47:35.614Z,93512.31
2023-02-19T21:52:37.400Z,93506.03
2023-02-19T21:57:39.186Z,93518.25
2023-02-19T22:02:42.248Z,93525.66
2023-02-19T22:07:44.122Z,93537.16
2023-02-19T22:12:45.973Z,93516.00
2023-02-19T22:17:47.702Z,93522.69
2023-02-19T22:22:49.850Z,93501.16
2023-02-19T22:27:51.531Z,93525.84
2023-02-19T22:32:53.551Z,93481.31
2023-02-19T22:37:55.263Z,93525.09
2023-02-19T22:42:56.951Z,93521.16
2023-02-19T22:47:58.683Z,93530.81
2023-02-19T22:53:00.419Z,93543.28
2023-02-19T22:58:02.121Z,93547.38
2023-02-19T23:03:03.859Z,93535.97
2023-02-19T23:08:05.930Z,93549.69
2023-02-19T23:13:07.707Z,93552.84
2023-02-19T23:18:09.398Z,93540.97
2023-02-19T23:23:11.446Z,93549.34
2023-02-19T23:28:13.152Z,93541.94
2023-02-19T23:33:14.882Z,93561.03
2023-02-19T23:38:16.882Z,93560.28
2023-02-19T23:43:19.490Z,93556.78
2023-02-19T23:48:21.238Z,93554.09
2023-02-19T23:53:23.097Z,93553.72
2023-02-19T23:58:24.836Z,93562.59
